Time;durP1;ratioP1;P1;durP2;ratioP2;P2;SDS_P1;SDS_P2;PMS_P1;PMS_P2;Temp;Humidity;BMP_temperature;BMP_pressure;BME280_temperature;BME280_humidity;BME280_pressure;Samples;Min_cycle;Max_cycle;Signal;HPM_P1;HPM_P2
2022/10/01 00:00:15;;;;;;;2.20;0.80;;;18.80;60.80;;;;;;5066724;28;20304;-64
2022/10/01 00:02:41;;;;;;;2.92;1.20;;;18.70;60.80;;;;;;5066688;28;20025;-65
2022/10/01 00:05:10;;;;;;;1.38;0.80;;;18.70;60.80;;;;;;5066647;28;20021;-65
2022/10/01 00:07:40;;;;;;;2.13;0.90;;;18.80;60.80;;;;;;5066560;28;20040;-64
2022/10/01 00:10:06;;;;;;;1.65;0.80;;;18.70;60.80;;;;;;5066543;28;20084;-65
2022/10/01 00:12:33;;;;;;;1.52;0.85;;;18.70;60.80;;;;;;5066427;28;20021;-65
2022/10/01 00:14:58;;;;;;;3.10;1.10;;;18.70;60.80;;;;;;5066424;28;20017;-64
2022/10/01 00:17:24;;;;;;;1.10;0.73;;;18.70;60.80;;;;;;5066380;28;20013;-63
2022/10/01 00:19:50;;;;;;;1.88;0.90;;;18.70;60.80;;;;;;5066357;28;20067;-63
2022/10/01 00:22:17;;;;;;;0.95;0.70;;;18.80;60.80;;;;;;5066157;28;20045;-64
2022/10/01 00:24:44;;;;;;;1.38;1.10;;;18.70;60.80;;;;;;5066248;28;20017;-65
2022/10/01 00:27:11;;;;;;;1.33;0.70;;;18.70;60.80;;;;;;5065113;28;20217;-65
2022/10/01 00:29:37;;;;;;;1.30;0.90;;;18.80;60.90;;;;;;5066403;28;20017;-64
2022/10/01 00:32:03;;;;;;;1.52;0.85;;;18.70;60.80;;;;;;5066020;28;20343;-64
2022/10/01 00:34:29;;;;;;;1.25;0.75;;;18.70;60.80;;;;;;5066072;28;20080;-64
2022/10/01 00:36:54;;;;;;;1.65;0.70;;;18.70;60.80;;;;;;5065976;28;20020;-64
2022/10/01 00:39:20;;;;;;;1.90;0.90;;;18.70;60.80;;;;;;5065974;28;20024;-64
2022/10/01 00:41:46;;;;;;;2.05;0.90;;;18.70;60.80;;;;;;5065954;28;20036;-64
2022/10/01 00:44:33;;;;;;;1.77;0.88;;;18.70;60.80;;;;;;5065868;28;20016;-63
2022/10/01 00:47:12;;;;;;;0.85;0.70;;;18.70;60.80;;;;;;5066059;28;20024;-64
2022/10/01 00:49:40;;;;;;;1.80;0.98;;;18.80;60.90;;;;;;5065799;28;20028;-63
2022/10/01 00:52:12;;;;;;;1.35;0.95;;;18.70;60.80;;;;;;5065909;28;20040;-65
2022/10/01 00:54:48;;;;;;;1.63;1.00;;;18.70;60.80;;;;;;5065710;28;20224;-64
2022/10/01 00:57:17;;;;;;;0.70;0.70;;;18.80;60.90;;;;;;5065682;28;20037;-65
2022/10/01 00:59:44;;;;;;;2.50;0.70;;;18.70;60.80;;;;;;5065612;28;20013;-64
2022/10/01 01:02:11;;;;;;;1.50;0.70;;;18.70;60.80;;;;;;5065532;28;20083;-64
2022/10/01 01:04:38;;;;;;;0.75;0.70;;;18.70;60.80;;;;;;5065469;28;20289;-64
2022/10/01 01:07:05;;;;;;;1.02;0.63;;;18.70;60.80;;;;;;5065472;28;20021;-64
2022/10/01 01:09:38;;;;;;;1.58;0.65;;;18.70;60.80;;;;;;5065366;28;20058;-65
2022/10/01 01:12:27;;;;;;;1.02;0.63;;;18.70;61.00;;;;;;5065239;28;20086;-66
2022/10/01 01:15:09;;;;;;;1.73;0.75;;;18.70;61.00;;;;;;5065332;28;20024;-63
2022/10/01 01:17:45;;;;;;;1.55;0.70;;;18.70;60.80;;;;;;5065539;28;20021;-64
2022/10/01 01:20:38;;;;;;;0.63;0.60;;;18.70;60.80;;;;;;5065227;28;20043;-64
2022/10/01 01:23:15;;;;;;;1.00;0.63;;;18.70;60.80;;;;;;5065115;28;20317;-64
2022/10/01 01:26:06;;;;;;;1.42;0.80;;;18.70;60.80;;;;;;5047440;28;20041;-65
2022/10/01 01:28:38;;;;;;;1.20;0.70;;;18.70;60.80;;;;;;5065051;28;20021;-64
2022/10/01 01:31:10;;;;;;;3.47;0.95;;;18.70;60.80;;;;;;5065048;28;20055;-63
2022/10/01 01:33:38;;;;;;;1.23;0.63;;;18.70;60.80;;;;;;5064862;28;20016;-63
2022/10/01 01:36:15;;;;;;;1.42;0.90;;;18.70;60.80;;;;;;5064891;28;20084;-64
2022/10/01 01:38:47;;;;;;;1.65;0.80;;;18.70;60.80;;;;;;5064680;28;20021;-65
2022/10/01 01:41:15;;;;;;;0.82;0.73;;;18.70;60.80;;;;;;5064820;28;20127;-64
2022/10/01 01:43:44;;;;;;;1.25;0.70;;;18.70;60.80;;;;;;5064774;28;20243;-65
2022/10/01 01:46:12;;;;;;;1.08;0.60;;;18.70;60.80;;;;;;5064687;28;20102;-65
2022/10/01 01:48:40;;;;;;;1.37;0.77;;;18.70;60.80;;;;;;5064715;28;20024;-64
2022/10/01 01:51:18;;;;;;;1.63;0.60;;;18.70;60.80;;;;;;5064651;28;20040;-63
2022/10/01 01:53:44;;;;;;;1.10;0.97;;;18.70;60.80;;;;;;5064551;28;20025;-64
2022/10/01 01:56:10;;;;;;;1.30;0.60;;;18.70;60.80;;;;;;5064550;28;20028;-65
2022/10/01 01:58:37;;;;;;;1.90;0.93;;;18.70;60.80;;;;;;5064460;28;20024;-64
2022/10/01 02:01:03;;;;;;;2.03;0.80;;;18.70;60.80;;;;;;5064420;28;20024;-64
2022/10/01 02:03:30;;;;;;;1.98;0.98;;;18.70;60.80;;;;;;5064373;28;20263;-63
2022/10/01 02:06:20;;;;;;;2.30;1.38;;;18.70;60.80;;;;;;5064314;28;20028;-64
2022/10/01 02:09:00;;;;;;;1.63;0.80;;;18.70;60.80;;;;;;5064290;28;20048;-65
2022/10/01 02:11:36;;;;;;;1.27;0.90;;;18.70;60.80;;;;;;5064260;28;20028;-65
2022/10/01 02:14:08;;;;;;;0.98;0.65;;;18.70;60.80;;;;;;5064157;28;20213;-64
2022/10/01 02:16:58;;;;;;;1.13;0.70;;;18.70;60.80;;;;;;5064143;28;20020;-64
2022/10/01 02:19:36;;;;;;;0.88;0.65;;;18.70;60.80;;;;;;5064151;28;20372;-65
2022/10/01 02:22:20;;;;;;;1.33;0.70;;;18.70;60.80;;;;;;5063928;28;20154;-64
2022/10/01 02:24:51;;;;;;;2.08;0.70;;;18.70;60.80;;;;;;5064029;28;20025;-63
2022/10/01 02:27:28;;;;;;;2.67;1.02;;;18.70;60.80;;;;;;5063949;28;20015;-63
2022/10/01 02:29:57;;;;;;;2.05;0.95;;;18.70;60.80;;;;;;5063897;28;20256;-64
2022/10/01 02:32:23;;;;;;;2.92;1.02;;;18.70;60.80;;;;;;5063758;28;20320;-64
2022/10/01 02:34:51;;;;;;;1.35;0.85;;;18.70;60.80;;;;;;5063845;28;20024;-64
2022/10/01 02:37:22;;;;;;;0.95;0.82;;;18.70;60.80;;;;;;5063726;28;20013;-63
2022/10/01 02:39:50;;;;;;;0.75;0.75;;;18.70;60.80;;;;;;5063802;28;20025;-64
2022/10/01 02:42:19;;;;;;;0.90;0.60;;;18.70;60.80;;;;;;5063729;28;20364;-64
2022/10/01 02:44:47;;;;;;;1.02;0.65;;;18.70;60.80;;;;;;5063688;28;20070;-64
2022/10/01 02:47:19;;;;;;;0.60;0.60;;;18.70;60.80;;;;;;5063695;28;20017;-64
2022/10/01 02:49:45;;;;;;;3.25;0.80;;;18.70;60.80;;;;;;5063050;28;20020;-63
2022/10/01 02:52:46;;;;;;;1.17;0.90;;;18.70;60.80;;;;;;5063475;28;20021;-65
2022/10/01 02:55:20;;;;;;;1.10;0.60;;;18.70;60.80;;;;;;5063574;28;20017;-63
2022/10/01 02:57:46;;;;;;;0.93;0.80;;;18.70;60.80;;;;;;5063521;28;20059;-63
2022/10/01 03:00:14;;;;;;;2.42;1.00;;;18.70;60.80;;;;;;5063430;28;20017;-64
2022/10/01 03:02:40;;;;;;;;;;;18.70;60.80;;;;;;5063902;28;20021;-64
2022/10/01 03:05:06;;;;;;;1.25;1.08;;;18.70;60.80;;;;;;5063388;28;19901;-65
2022/10/01 03:07:34;;;;;;;1.10;0.60;;;18.70;60.80;;;;;;5063355;28;20088;-64
2022/10/01 03:10:04;;;;;;;1.77;0.98;;;18.70;60.80;;;;;;5063303;28;20025;-63
2022/10/01 03:12:29;;;;;;;2.70;0.80;;;18.70;60.80;;;;;;5063293;28;20040;-65
2022/10/01 03:14:55;;;;;;;0.85;0.60;;;18.70;60.80;;;;;;5063339;28;20367;-65
2022/10/01 03:17:21;;;;;;;1.17;0.80;;;18.60;60.80;;;;;;5063316;28;20028;-64
2022/10/01 03:19:47;;;;;;;0.95;0.55;;;18.70;60.80;;;;;;5063313;28;20028;-64
2022/10/01 03:22:14;;;;;;;0.95;0.70;;;18.60;60.80;;;;;;5063005;28;20087;-64
2022/10/01 03:24:40;;;;;;;1.08;0.57;;;18.70;60.80;;;;;;5063217;28;20313;-63
2022/10/01 03:27:06;;;;;;;1.80;0.70;;;18.60;60.80;;;;;;5063182;28;20029;-64
2022/10/01 03:29:31;;;;;;;2.05;0.93;;;18.60;60.80;;;;;;5063185;28;20013;-64
2022/10/01 03:31:57;;;;;;;1.02;0.77;;;18.60;60.80;;;;;;5063174;28;20048;-64
2022/10/01 03:34:22;;;;;;;1.00;0.80;;;18.60;60.80;;;;;;5063032;28;20233;-64
2022/10/01 03:36:51;;;;;;;0.70;0.52;;;18.70;60.80;;;;;;5063112;28;20090;-63
2022/10/01 03:39:16;;;;;;;1.33;0.73;;;18.70;60.80;;;;;;5063381;28;20024;-63
2022/10/01 03:41:42;;;;;;;2.55;0.82;;;18.70;60.90;;;;;;5063354;28;20377;-63
2022/10/01 03:44:08;;;;;;;2.40;0.70;;;18.70;60.80;;;;;;5063052;28;20017;-64
2022/10/01 03:46:34;;;;;;;1.83;0.80;;;18.70;60.80;;;;;;5063055;28;20117;-63
2022/10/01 03:48:59;;;;;;;1.02;0.80;;;18.70;60.80;;;;;;5063050;28;20028;-64
2022/10/01 03:51:29;;;;;;;1.55;0.90;;;18.70;60.80;;;;;;5062974;28;20051;-64
2022/10/01 03:53:55;;;;;;;0.60;0.60;;;18.70;60.80;;;;;;5062813;28;20025;-64
2022/10/01 03:56:21;;;;;;;1.63;0.68;;;18.60;60.80;;;;;;5062962;28;20017;-63
2022/10/01 03:58:47;;;;;;;0.93;0.60;;;18.70;60.80;;;;;;5062895;28;20017;-64
2022/10/01 04:01:13;;;;;;;0.98;0.55;;;18.60;60.80;;;;;;5064797;28;20083;-63
2022/10/01 04:03:39;;;;;;;0.70;0.60;;;18.60;60.80;;;;;;5066665;28;20021;-63
2022/10/01 04:06:05;;;;;;;0.80;0.70;;;18.60;60.80;;;;;;5066607;28;20220;-63
2022/10/01 04:08:30;;;;;;;1.67;0.80;;;18.60;60.80;;;;;;5066564;28;20055;-64
2022/10/01 04:10:56;;;;;;;1.52;0.50;;;18.60;60.80;;;;;;5066559;28;20032;-64
2022/10/01 04:13:21;;;;;;;0.52;0.40;;;18.70;60.80;;;;;;5066465;28;20027;-64
2022/10/01 04:15:47;;;;;;;0.93;0.68;;;18.60;60.80;;;;;;5066455;28;20044;-64
2022/10/01 04:18:15;;;;;;;0.43;0.40;;;18.60;60.80;;;;;;5066405;28;20197;-64
2022/10/01 04:20:41;;;;;;;2.27;0.80;;;18.60;60.80;;;;;;5066413;28;20017;-63
2022/10/01 04:23:06;;;;;;;1.17;0.88;;;18.60;60.80;;;;;;5066188;28;20055;-63
2022/10/01 04:25:32;;;;;;;0.93;0.70;;;18.60;60.80;;;;;;5066266;28;20062;-63
2022/10/01 04:28:05;;;;;;;0.75;0.50;;;18.60;60.80;;;;;;5066276;28;20076;-64
2022/10/01 04:30:34;;;;;;;1.02;0.57;;;18.60;60.80;;;;;;5066189;28;20094;-65
2022/10/01 04:33:01;;;;;;;0.70;0.55;;;18.60;60.80;;;;;;5066064;28;20013;-64
2022/10/01 04:35:27;;;;;;;0.50;0.50;;;18.60;60.80;;;;;;5066065;28;20084;-63
2022/10/01 04:38:00;;;;;;;0.90;0.70;;;18.60;60.80;;;;;;5066041;28;20276;-64
2022/10/01 04:40:26;;;;;;;0.63;0.55;;;18.60;60.80;;;;;;5065985;28;20009;-63
2022/10/01 04:42:52;;;;;;;2.05;0.95;;;18.60;60.80;;;;;;5065957;28;20025;-64
2022/10/01 04:45:18;;;;;;;0.50;0.50;;;18.60;60.80;;;;;;5065835;28;20085;-63
2022/10/01 04:47:49;;;;;;;1.20;0.65;;;18.60;60.80;;;;;;5065861;28;20044;-64
2022/10/01 04:50:15;;;;;;;1.95;1.05;;;18.60;60.80;;;;;;5065800;28;20363;-64
2022/10/01 04:52:41;;;;;;;0.82;0.68;;;18.60;60.80;;;;;;5065693;28;20040;-65
2022/10/01 04:55:07;;;;;;;1.80;0.75;;;18.60;60.80;;;;;;5065690;28;20074;-64
2022/10/01 04:57:34;;;;;;;0.85;0.70;;;18.60;60.80;;;;;;5065717;28;20024;-65
2022/10/01 05:00:00;;;;;;;0.65;0.65;;;18.60;60.80;;;;;;5065593;28;20013;-65
2022/10/01 05:02:27;;;;;;;1.50;0.73;;;18.60;60.80;;;;;;5065591;28;20027;-63
2022/10/01 05:04:54;;;;;;;0.52;0.43;;;18.60;60.80;;;;;;5065500;28;20024;-64
2022/10/01 05:07:21;;;;;;;1.27;0.50;;;18.60;60.80;;;;;;5065509;28;20084;-64
2022/10/01 05:09:47;;;;;;;1.05;0.95;;;18.60;60.80;;;;;;5047629;28;20028;-65
2022/10/01 05:12:13;;;;;;;1.38;0.63;;;18.60;60.80;;;;;;5064793;28;20190;-63
2022/10/01 05:14:39;;;;;;;1.50;0.57;;;18.60;60.80;;;;;;5065343;28;20017;-64
2022/10/01 05:17:06;;;;;;;3.03;1.40;;;18.60;60.80;;;;;;5065262;28;20092;-64
2022/10/01 05:19:32;;;;;;;1.30;0.85;;;18.60;60.80;;;;;;5047479;28;20051;-64
2022/10/01 05:21:58;;;;;;;0.52;0.52;;;18.60;60.80;;;;;;5047275;28;20048;-64
2022/10/01 05:24:24;;;;;;;0.60;0.57;;;18.60;60.80;;;;;;5065176;28;20347;-64
2022/10/01 05:26:52;;;;;;;0.88;0.80;;;18.60;60.80;;;;;;5065116;28;20029;-63
2022/10/01 05:29:21;;;;;;;0.43;0.40;;;18.60;60.80;;;;;;5065110;28;20321;-63
2022/10/01 05:31:48;;;;;;;0.98;0.60;;;18.60;60.80;;;;;;5065057;28;20028;-64
2022/10/01 05:34:13;;;;;;;0.88;0.60;;;18.60;60.80;;;;;;5064891;28;20017;-63
2022/10/01 05:36:39;;;;;;;1.80;0.70;;;18.60;60.80;;;;;;5064945;28;20020;-64
2022/10/01 05:39:05;;;;;;;1.00;0.65;;;18.60;60.80;;;;;;5064921;28;20084;-63
2022/10/01 05:41:31;;;;;;;0.75;0.50;;;18.60;60.80;;;;;;5064867;28;20083;-63
2022/10/01 05:43:56;;;;;;;1.58;0.70;;;18.60;60.80;;;;;;5064825;28;20346;-64
2022/10/01 05:46:22;;;;;;;0.95;0.77;;;18.60;60.80;;;;;;5064766;28;20032;-64
2022/10/01 05:48:50;;;;;;;0.70;0.55;;;18.60;60.80;;;;;;5064742;28;20023;-63
2022/10/01 05:51:16;;;;;;;0.88;0.57;;;18.60;60.80;;;;;;5064685;28;20020;-64
2022/10/01 05:53:42;;;;;;;1.50;0.47;;;18.60;60.80;;;;;;5064488;28;20058;-63
2022/10/01 05:56:07;;;;;;;0.73;0.73;;;18.60;60.80;;;;;;5064597;28;20036;-64
2022/10/01 05:58:33;;;;;;;0.70;0.40;;;18.60;60.80;;;;;;5064555;28;20054;-64
2022/10/01 06:00:59;;;;;;;1.30;0.80;;;18.60;60.80;;;;;;5064469;28;20048;-65
2022/10/01 06:03:27;;;;;;;0.95;0.60;;;18.60;60.80;;;;;;5064397;28;20079;-64
2022/10/01 06:05:54;;;;;;;0.65;0.63;;;18.60;60.70;;;;;;5064635;28;20025;-65
2022/10/01 06:08:20;;;;;;;0.85;0.57;;;18.60;60.70;;;;;;5064318;28;20025;-64
2022/10/01 06:10:46;;;;;;;0.65;0.57;;;18.60;60.70;;;;;;5064294;28;20020;-63
2022/10/01 06:13:16;;;;;;;0.95;0.60;;;18.60;60.70;;;;;;5064153;28;20044;-63
2022/10/01 06:15:43;;;;;;;1.13;0.90;;;18.60;60.70;;;;;;5064143;28;20340;-63
2022/10/01 06:18:11;;;;;;;0.43;0.43;;;18.60;60.70;;;;;;5064176;28;20016;-64
2022/10/01 06:20:38;;;;;;;1.67;0.70;;;18.60;60.70;;;;;;5064139;28;20017;-64
2022/10/01 06:23:06;;;;;;;0.65;0.65;;;18.60;60.70;;;;;;5063895;28;20043;-63
2022/10/01 06:25:33;;;;;;;1.17;0.87;;;18.60;60.60;;;;;;5063210;28;20031;-64
2022/10/01 06:28:00;;;;;;;0.98;0.77;;;18.60;60.60;;;;;;5063937;28;20254;-64
2022/10/01 06:30:29;;;;;;;0.93;0.60;;;18.60;60.70;;;;;;5063900;28;20044;-64
2022/10/01 06:33:06;;;;;;;1.48;0.80;;;18.60;60.70;;;;;;5063806;28;20017;-65
2022/10/01 06:35:33;;;;;;;1.45;0.63;;;18.60;60.70;;;;;;5064099;28;20047;-64
2022/10/01 06:38:02;;;;;;;0.73;0.68;;;18.60;60.70;;;;;;5063814;28;20051;-63
2022/10/01 06:40:28;;;;;;;1.00;0.70;;;18.60;60.70;;;;;;5063779;28;20012;-64
2022/10/01 06:42:57;;;;;;;2.97;0.73;;;18.60;60.70;;;;;;5063732;28;20341;-63
2022/10/01 06:45:25;;;;;;;0.98;0.60;;;18.60;60.70;;;;;;5063661;28;20096;-64
2022/10/01 06:47:55;;;;;;;0.93;0.70;;;18.60;60.70;;;;;;5063664;28;20021;-64
2022/10/01 06:50:22;;;;;;;1.67;0.90;;;18.60;60.70;;;;;;5063627;28;20020;-64
2022/10/01 06:52:48;;;;;;;1.48;0.50;;;18.60;60.60;;;;;;5063508;28;20079;-63
2022/10/01 06:55:19;;;;;;;1.20;0.60;;;18.60;60.70;;;;;;5063527;28;20013;-64
2022/10/01 06:57:45;;;;;;;0.60;0.60;;;18.60;60.70;;;;;;5063489;28;20324;-63
2022/10/01 07:00:13;;;;;;;0.50;0.50;;;18.60;60.60;;;;;;5063437;28;20017;-63
2022/10/01 07:02:39;;;;;;;1.27;0.50;;;18.60;60.70;;;;;;5063506;28;20080;-63
2022/10/01 07:05:06;;;;;;;0.70;0.70;;;18.60;60.70;;;;;;5063447;28;20029;-64
2022/10/01 07:07:34;;;;;;;1.25;0.75;;;18.60;60.70;;;;;;5063395;28;20021;-64
2022/10/01 07:10:01;;;;;;;1.02;0.70;;;18.60;60.70;;;;;;5063433;28;20229;-63
2022/10/01 07:12:27;;;;;;;0.55;0.50;;;18.60;60.60;;;;;;5063251;28;20025;-63
2022/10/01 07:14:53;;;;;;;2.72;0.73;;;18.60;60.60;;;;;;5063321;28;20017;-63
2022/10/01 07:17:20;;;;;;;1.55;0.68;;;18.60;60.60;;;;;;5063331;28;20027;-64
2022/10/01 07:19:45;;;;;;;0.75;0.50;;;18.60;60.60;;;;;;5063285;28;20025;-64
2022/10/01 07:22:11;;;;;;;0.60;0.60;;;18.60;60.50;;;;;;5063114;28;20276;-64
2022/10/01 07:24:37;;;;;;;0.77;0.65;;;18.70;60.60;;;;;;5063288;28;20024;-64
2022/10/01 07:27:03;;;;;;;0.63;0.60;;;18.60;60.50;;;;;;5063216;28;20017;-64
2022/10/01 07:29:30;;;;;;;0.75;0.45;;;18.60;60.50;;;;;;5063212;28;20048;-64
2022/10/01 07:32:00;;;;;;;1.27;0.60;;;18.60;60.50;;;;;;5063217;28;20312;-65
2022/10/01 07:34:29;;;;;;;1.52;0.73;;;18.60;60.50;;;;;;5063121;28;20331;-63
2022/10/01 07:36:55;;;;;;;0.52;0.38;;;18.60;60.40;;;;;;5066293;28;20021;-65
2022/10/01 07:39:22;;;;;;;0.88;0.63;;;18.70;60.50;;;;;;5067187;28;20012;-64
2022/10/01 07:41:50;;;;;;;0.90;0.85;;;18.70;60.50;;;;;;5067151;28;20021;-65
2022/10/01 07:44:16;;;;;;;1.20;0.63;;;18.70;60.50;;;;;;5067089;28;20340;-64
2022/10/01 07:46:41;;;;;;;1.00;0.70;;;18.70;60.40;;;;;;5067018;28;20243;-65
2022/10/01 07:49:08;;;;;;;1.75;0.75;;;18.70;60.40;;;;;;5067017;28;20025;-64
2022/10/01 07:51:35;;;;;;;1.10;0.98;;;18.70;60.40;;;;;;5067167;28;20053;-64
2022/10/01 07:54:02;;;;;;;1.63;0.70;;;18.70;60.40;;;;;;5067060;28;20028;-64
2022/10/01 07:56:28;;;;;;;0.93;0.65;;;18.70;60.30;;;;;;5066862;28;20043;-64
2022/10/01 07:58:54;;;;;;;0.95;0.60;;;18.70;60.40;;;;;;5066813;28;20079;-65
2022/10/01 08:01:20;;;;;;;1.35;0.88;;;18.70;60.40;;;;;;5066714;28;20319;-64
2022/10/01 08:03:52;;;;;;;1.13;0.80;;;18.70;60.40;;;;;;5066741;28;20029;-63
2022/10/01 08:06:19;;;;;;;3.40;1.00;;;18.70;60.40;;;;;;5066894;28;20017;-64
2022/10/01 08:08:45;;;;;;;0.80;0.60;;;18.70;60.40;;;;;;5066613;28;20190;-63
2022/10/01 08:11:13;;;;;;;0.57;0.57;;;18.70;60.30;;;;;;5066579;28;20020;-64
2022/10/01 08:13:40;;;;;;;0.80;0.55;;;18.70;60.40;;;;;;5066733;28;20025;-64
2022/10/01 08:16:08;;;;;;;0.70;0.70;;;18.70;60.40;;;;;;5066491;28;20020;-65
2022/10/01 08:18:35;;;;;;;0.95;0.60;;;18.70;60.50;;;;;;5066470;28;20012;-64
2022/10/01 08:21:01;;;;;;;0.38;0.32;;;18.70;60.50;;;;;;5066265;28;20017;-65
2022/10/01 08:23:29;;;;;;;0.50;0.50;;;18.70;60.40;;;;;;5066261;28;20337;-64
2022/10/01 08:26:12;;;;;;;1.48;0.60;;;18.70;60.40;;;;;;5066288;28;20037;-64
2022/10/01 08:28:39;;;;;;;1.60;1.45;;;18.70;60.40;;;;;;5066197;28;20024;-64
2022/10/01 08:31:06;;;;;;;1.00;0.55;;;18.70;60.40;;;;;;5066242;28;20021;-65
2022/10/01 08:33:33;;;;;;;3.00;1.15;;;18.70;60.30;;;;;;5066337;28;20029;-65
2022/10/01 08:36:03;;;;;;;0.90;0.65;;;18.70;60.40;;;;;;5066096;28;20080;-64
2022/10/01 08:38:29;;;;;;;1.33;0.60;;;18.70;60.40;;;;;;5065994;28;20317;-64
2022/10/01 08:40:56;;;;;;;0.73;0.57;;;18.70;60.40;;;;;;5066009;28;20058;-64
2022/10/01 08:43:37;;;;;;;0.85;0.43;;;18.70;60.40;;;;;;5065959;28;20208;-64
2022/10/01 08:46:13;;;;;;;0.50;0.40;;;18.70;60.40;;;;;;5065888;28;20013;-65
2022/10/01 08:48:52;;;;;;;0.82;0.60;;;18.70;60.40;;;;;;5065002;28;20040;-63
2022/10/01 08:51:31;;;;;;;;;;;18.70;60.40;;;;;;5066239;28;20021;-64
2022/10/01 08:54:21;;;;;;;0.95;0.60;;;18.70;60.30;;;;;;5065706;28;19904;-64
2022/10/01 08:56:47;;;;;;;0.85;0.47;;;18.70;60.30;;;;;;5065762;28;20028;-65
2022/10/01 08:59:43;;;;;;;0.90;0.70;;;18.80;60.10;;;;;;5065907;28;20076;-64
2022/10/01 09:02:24;;;;;;;0.82;0.50;;;18.90;59.90;;;;;;5059285;28;20320;-64
2022/10/01 09:04:56;;;;;;;1.13;0.50;;;18.90;59.90;;;;;;5065560;28;20028;-65
2022/10/01 09:07:28;;;;;;;1.35;0.75;;;18.80;59.90;;;;;;5047757;28;20021;-64
2022/10/01 09:10:34;;;;;;;0.45;0.43;;;18.80;60.00;;;;;;5065504;28;20100;-64
2022/10/01 09:13:23;;;;;;;0.68;0.50;;;18.80;60.10;;;;;;5064800;28;20033;-63
2022/10/01 09:16:12;;;;;;;0.85;0.50;;;18.80;60.20;;;;;;5065448;28;20013;-65
2022/10/01 09:18:40;;;;;;;0.50;0.50;;;18.80;60.10;;;;;;5065365;28;20024;-64
2022/10/01 09:21:34;;;;;;;0.65;0.40;;;18.80;59.90;;;;;;5065290;28;20021;-64
2022/10/01 09:24:14;;;;;;;0.52;0.50;;;18.80;60.10;;;;;;5036937;28;20045;-65
2022/10/01 09:26:45;;;;;;;0.50;0.50;;;18.80;60.30;;;;;;5065186;28;20013;-62
2022/10/01 09:29:26;;;;;;;0.95;0.60;;;18.80;60.20;;;;;;5065170;28;20063;-64
2022/10/01 09:31:53;;;;;;;0.50;0.50;;;18.80;60.20;;;;;;5065141;28;20304;-63
2022/10/01 09:34:41;;;;;;;1.00;0.63;;;18.80;60.20;;;;;;5064957;28;20017;-63
2022/10/01 09:37:13;;;;;;;0.77;0.77;;;18.80;60.10;;;;;;5064826;28;20027;-64
2022/10/01 09:40:23;;;;;;;1.25;0.75;;;18.80;60.20;;;;;;5047156;28;20232;-63
2022/10/01 09:42:50;;;;;;;0.55;0.40;;;18.80;60.20;;;;;;5064859;28;20021;-64
2022/10/01 09:45:18;;;;;;;1.90;0.60;;;18.70;60.30;;;;;;5064797;28;20123;-64
2022/10/01 09:47:50;;;;;;;0.50;0.50;;;18.70;60.30;;;;;;5064741;28;20084;-64
2022/10/01 09:50:26;;;;;;;0.75;0.60;;;18.70;60.30;;;;;;5064700;28;20025;-62
2022/10/01 09:52:53;;;;;;;1.13;0.65;;;18.70;60.30;;;;;;5064586;28;20029;-64
2022/10/01 09:55:38;;;;;;;1.30;0.75;;;18.70;60.30;;;;;;5064565;28;20055;-64
2022/10/01 09:58:21;;;;;;;0.52;0.47;;;18.70;60.30;;;;;;5064401;28;20028;-64
2022/10/01 10:00:50;;;;;;;0.98;0.75;;;18.70;60.50;;;;;;5064541;28;20017;-64
2022/10/01 10:03:29;;;;;;;0.57;0.43;;;18.80;60.30;;;;;;5064456;28;20021;-63
2022/10/01 10:05:58;;;;;;;1.02;0.50;;;18.70;60.20;;;;;;5064419;28;20017;-64
2022/10/01 10:08:33;;;;;;;0.70;0.60;;;18.70;60.30;;;;;;5064303;28;20032;-63
2022/10/01 10:11:01;;;;;;;0.73;0.52;;;18.70;60.30;;;;;;5064303;28;20327;-64
2022/10/01 10:13:37;;;;;;;0.55;0.52;;;18.80;60.30;;;;;;5064216;28;20024;-63
2022/10/01 10:16:14;;;;;;;1.02;0.60;;;18.80;60.30;;;;;;5064242;28;20206;-64
2022/10/01 10:18:40;;;;;;;0.52;0.52;;;18.80;60.30;;;;;;5064211;28;20017;-64
2022/10/01 10:21:15;;;;;;;1.77;0.80;;;18.80;60.30;;;;;;5064122;28;20077;-65
2022/10/01 10:23:52;;;;;;;1.00;0.90;;;18.80;60.20;;;;;;5064145;28;20060;-63
2022/10/01 10:26:27;;;;;;;0.73;0.63;;;18.80;60.20;;;;;;5064021;28;20013;-64
2022/10/01 10:28:55;;;;;;;0.57;0.45;;;18.80;60.20;;;;;;5064021;28;20080;-64
2022/10/01 10:31:26;;;;;;;0.85;0.50;;;18.80;60.20;;;;;;5063954;28;20087;-64
2022/10/01 10:34:05;;;;;;;0.60;0.60;;;18.80;60.20;;;;;;5046110;28;20024;-64
2022/10/01 10:36:34;;;;;;;0.90;0.70;;;18.80;60.20;;;;;;5063883;28;20021;-64
2022/10/01 10:39:00;;;;;;;;;;;18.80;60.20;;;;;;5064251;28;20080;-64
2022/10/01 10:41:28;;;;;;;0.50;0.50;;;18.80;60.20;;;;;;5064035;28;19901;-64
2022/10/01 10:44:00;;;;;;;1.10;0.60;;;18.80;60.30;;;;;;5063760;28;20013;-65
2022/10/01 10:46:32;;;;;;;0.63;0.60;;;18.80;60.30;;;;;;5063693;28;20096;-64
2022/10/01 10:49:23;;;;;;;0.50;0.50;;;18.80;60.20;;;;;;5063696;28;20044;-65
2022/10/01 10:51:53;;;;;;;0.70;0.70;;;18.80;60.10;;;;;;5054517;28;20082;-63
2022/10/01 10:54:28;;;;;;;0.88;0.80;;;18.80;60.10;;;;;;5063543;28;20048;-63
2022/10/01 10:57:01;;;;;;;0.98;0.88;;;18.90;60.10;;;;;;5063578;28;20074;-64
2022/10/01 10:59:31;;;;;;;1.67;0.60;;;18.90;60.00;;;;;;5063464;28;20021;-64
2022/10/01 11:02:03;;;;;;;1.45;0.70;;;18.90;60.10;;;;;;5063497;28;20017;-64
2022/10/01 11:04:33;;;;;;;0.82;0.82;;;18.90;60.10;;;;;;5063498;28;20021;-64
2022/10/01 11:07:00;;;;;;;0.63;0.63;;;18.90;60.10;;;;;;5063892;28;20021;-64
2022/10/01 11:09:59;;;;;;;0.43;0.43;;;18.80;60.10;;;;;;5063675;28;20088;-63
2022/10/01 11:12:57;;;;;;;0.90;0.50;;;18.80;60.10;;;;;;5059290;28;20052;-63
2022/10/01 11:15:45;;;;;;;0.90;0.60;;;18.80;60.20;;;;;;5062979;28;20021;-64
2022/10/01 11:18:27;;;;;;;0.60;0.60;;;18.80;60.30;;;;;;5063388;28;20052;-63
2022/10/01 11:21:25;;;;;;;1.05;0.60;;;18.80;60.30;;;;;;5045606;28;20281;-63
2022/10/01 11:24:18;;;;;;;0.60;0.50;;;18.80;60.20;;;;;;5063347;28;20099;-63
2022/10/01 11:26:57;;;;;;;1.23;0.50;;;18.80;60.20;;;;;;5063292;28;20025;-63
2022/10/01 11:29:46;;;;;;;;;;;18.80;60.20;;;;;;5063684;28;20125;-64
2022/10/01 11:32:18;;;;;;;1.10;0.70;;;18.80;60.20;;;;;;5063266;28;20318;-64
2022/10/01 11:34:49;;;;;;;0.52;0.40;;;18.80;60.30;;;;;;5063162;28;20243;-63
2022/10/01 11:37:33;;;;;;;1.17;0.60;;;18.80;60.30;;;;;;5063100;28;20063;-63
2022/10/01 11:40:12;;;;;;;0.57;0.52;;;18.80;60.20;;;;;;5063181;28;20028;-63
2022/10/01 11:42:40;;;;;;;0.60;0.50;;;18.80;60.20;;;;;;5063164;28;20024;-65
2022/10/01 11:45:35;;;;;;;0.95;0.60;;;18.80;60.30;;;;;;5063081;28;20084;-64
2022/10/01 11:48:07;;;;;;;0.70;0.65;;;18.80;60.20;;;;;;5063097;28;20031;-65
2022/10/01 11:50:38;;;;;;;0.52;0.52;;;18.80;60.30;;;;;;5063072;28;20021;-65
2022/10/01 11:53:31;;;;;;;0.40;0.40;;;18.80;60.30;;;;;;5062925;28;20354;-64
2022/10/01 11:59:02;;;;;;;1.60;0.60;;;18.80;60.30;;;;;;5063023;28;20020;-64
2022/10/01 12:02:01;;;;;;;0.50;0.50;;;18.80;60.30;;;;;;5062954;28;20080;-64
2022/10/01 12:04:46;;;;;;;0.75;0.60;;;18.80;60.30;;;;;;5062930;28;20090;-63
2022/10/01 12:07:37;;;;;;;0.40;0.40;;;18.70;60.40;;;;;;5062927;28;20216;-66
2022/10/01 12:10:16;;;;;;;0.68;0.60;;;18.80;60.40;;;;;;5062903;28;20217;-66
2022/10/01 12:13:06;;;;;;;0.45;0.45;;;18.70;60.40;;;;;;5062787;28;20028;-64
2022/10/01 12:15:40;;;;;;;0.68;0.60;;;18.70;60.30;;;;;;5062842;28;20024;-64
2022/10/01 12:18:28;;;;;;;0.60;0.50;;;18.70;60.40;;;;;;5062795;28;20023;-64
2022/10/01 12:20:57;;;;;;;0.60;0.60;;;18.70;60.40;;;;;;5062841;28;20017;-64
2022/10/01 12:23:31;;;;;;;0.70;0.40;;;18.70;60.40;;;;;;5064662;28;20198;-63
2022/10/01 12:26:26;;;;;;;0.40;0.40;;;18.70;60.30;;;;;;5066372;28;20017;-63
2022/10/01 12:29:22;;;;;;;0.73;0.70;;;18.80;60.30;;;;;;5065738;28;20079;-62
2022/10/01 12:31:53;;;;;;;0.95;0.70;;;18.70;60.30;;;;;;5049129;28;20060;-64
2022/10/01 12:34:50;;;;;;;0.88;0.80;;;18.70;60.40;;;;;;5066111;28;20020;-63
2022/10/01 12:37:24;;;;;;;0.73;0.47;;;18.80;60.30;;;;;;5066157;28;20013;-64
2022/10/01 12:40:11;;;;;;;0.82;0.57;;;18.80;60.40;;;;;;5066100;28;20017;-64
2022/10/01 12:42:50;;;;;;;0.85;0.68;;;18.80;60.40;;;;;;5066036;28;20209;-64
2022/10/01 12:45:55;;;;;;;0.40;0.40;;;18.80;60.40;;;;;;5065976;28;20009;-64
2022/10/01 12:48:39;;;;;;;0.75;0.57;;;18.80;60.30;;;;;;5065978;28;20009;-64
2022/10/01 12:51:40;;;;;;;1.23;0.52;;;18.80;60.30;;;;;;5065850;28;20017;-65
2022/10/01 12:54:16;;;;;;;0.60;0.40;;;18.80;60.40;;;;;;5021510;28;20036;-65
2022/10/01 12:56:55;;;;;;;0.60;0.60;;;18.80;60.40;;;;;;5065784;28;20328;-63
2022/10/01 12:59:39;;;;;;;0.68;0.50;;;18.80;60.30;;;;;;5065739;28;20084;-64
2022/10/01 13:02:23;;;;;;;0.93;0.65;;;18.80;60.30;;;;;;5065732;28;20021;-64
2022/10/01 13:04:54;;;;;;;0.73;0.52;;;18.80;60.30;;;;;;5065663;28;20020;-64
2022/10/01 13:07:28;;;;;;;0.75;0.60;;;18.80;60.30;;;;;;5065632;28;20017;-64
2022/10/01 13:10:21;;;;;;;0.75;0.57;;;18.80;60.30;;;;;;5065532;28;20021;-65
2022/10/01 13:12:55;;;;;;;0.70;0.52;;;18.80;60.30;;;;;;5065429;28;20027;-65
2022/10/01 13:15:28;;;;;;;0.40;0.38;;;18.80;60.30;;;;;;5065454;28;20021;-63